Terminal Aerodrome Forecast
Issued by NWS Paducah, KY

Home | Current Version | Previous Version | Text Only | Print | Product List | Glossary On
Versions: 1 2 3 4 5 6 7 8 9 10 11 12 13 14 15 16 17 18
497
FTUS43 KPAH 220814 AAB
TAFPAH
TAF AMD
KPAH 220814Z 2208/2306 VRB03KT P6SM SCT100
      TEMPO 2208/2211 5SM BR BKN020
     FM221500 29005KT P6SM SCT030 BKN150
     FM221900 32005KT P6SM BKN035
     FM230100 VRB02KT P6SM SKC=

USA.gov is the U.S. government's official web portal to all federal, state and local government web resources and services.